Time;durP1;ratioP1;P1;durP2;ratioP2;P2;SDS_P1;SDS_P2;PMS_P1;PMS_P2;Temp;Humidity;BMP_temperature;BMP_pressure;BME280_temperature;BME280_humidity;BME280_pressure;Samples;Min_cycle;Max_cycle;Signal;HPM_P1;HPM_P2
2023/04/27 00:00:20;;;;;;;1999.90;999.90;;;;;;;10.37;100.00;98000.97;5137216;27;20079;-74
2023/04/27 00:02:46;;;;;;;1999.90;999.90;;;;;;;10.33;100.00;97999.94;5137958;27;20058;-74
2023/04/27 00:05:12;;;;;;;1999.90;999.90;;;;;;;10.31;100.00;98004.88;5138692;27;20023;-74
2023/04/27 00:07:37;;;;;;;1999.90;999.90;;;;;;;10.28;100.00;98000.00;5138695;27;20098;-75
2023/04/27 00:10:03;;;;;;;1999.90;999.90;;;;;;;10.40;100.00;98005.84;5138577;27;20046;-75
2023/04/27 00:12:28;;;;;;;1999.90;999.90;;;;;;;10.42;100.00;97994.63;5137956;27;20049;-77
2023/04/27 00:14:53;;;;;;;1999.90;999.90;;;;;;;10.37;100.00;97998.22;5136016;27;20391;-74
2023/04/27 00:17:18;;;;;;;1999.90;999.90;;;;;;;10.36;100.00;97995.81;5136007;27;20156;-75
2023/04/27 00:19:44;;;;;;;1999.90;999.90;;;;;;;10.36;100.00;97996.63;5135971;27;20176;-76
2023/04/27 00:22:10;;;;;;;1999.90;999.90;;;;;;;10.31;100.00;97999.41;5136171;27;20113;-74
2023/04/27 00:24:35;;;;;;;1999.90;999.90;;;;;;;10.29;100.00;97998.06;5135628;27;20028;-76
2023/04/27 00:27:01;;;;;;;1999.90;999.90;;;;;;;10.32;100.00;98002.94;5136766;27;20110;-74
2023/04/27 00:29:27;;;;;;;1999.90;999.90;;;;;;;10.33;100.00;98008.16;5136393;27;20023;-76
2023/04/27 00:31:52;;;;;;;1999.90;999.90;;;;;;;10.38;100.00;98002.59;5135913;27;20118;-76
2023/04/27 00:34:17;;;;;;;1999.90;999.90;;;;;;;10.37;100.00;98009.16;5136351;27;20043;-76
2023/04/27 00:36:43;;;;;;;1999.90;999.90;;;;;;;10.34;100.00;98004.28;5135913;27;20110;-74
2023/04/27 00:39:08;;;;;;;1999.90;999.90;;;;;;;10.33;100.00;98008.16;5141131;27;20039;-78
2023/04/27 00:41:38;;;;;;;1999.90;999.90;;;;;;;10.32;100.00;98008.41;5141434;27;20055;-80
2023/04/27 00:44:04;;;;;;;1999.90;999.90;;;;;;;10.33;100.00;98007.31;5141654;27;20031;-76
2023/04/27 00:46:30;;;;;;;1999.90;999.90;;;;;;;10.37;100.00;98006.44;5142419;27;20020;-78
2023/04/27 00:48:55;;;;;;;1999.90;999.90;;;;;;;10.42;100.00;98011.03;5144121;27;20023;-76
2023/04/27 00:51:21;;;;;;;1999.90;999.90;;;;;;;10.36;100.00;98013.03;5144287;27;20043;-76
2023/04/27 00:53:49;;;;;;;1999.90;999.90;;;;;;;10.30;100.00;98014.19;5141510;27;20087;-77
2023/04/27 00:56:15;;;;;;;1999.90;999.90;;;;;;;10.28;100.00;98026.50;5138413;27;20042;-76
2023/04/27 00:58:40;;;;;;;1999.90;999.90;;;;;;;10.31;100.00;98025.91;5138251;27;20020;-76
2023/04/27 01:01:05;;;;;;;1999.90;999.90;;;;;;;10.14;100.00;98016.28;5137153;27;20071;-76
2023/04/27 01:03:31;;;;;;;1999.90;999.90;;;;;;;10.23;100.00;98019.19;5133861;27;20031;-76
2023/04/27 01:06:00;;;;;;;1999.90;999.90;;;;;;;10.26;100.00;98024.06;5133707;27;20067;-74
2023/04/27 01:08:26;;;;;;;1999.90;999.90;;;;;;;10.26;100.00;98024.06;5118184;27;20035;-75
2023/04/27 01:10:51;;;;;;;1999.90;999.90;;;;;;;10.18;100.00;98017.31;5125589;27;20035;-76
2023/04/27 01:13:17;;;;;;;1999.90;999.90;;;;;;;10.22;100.00;98020.28;5132739;27;20145;-75
2023/04/27 01:15:42;;;;;;;1999.90;999.90;;;;;;;10.22;100.00;98023.03;5132943;27;20030;-75
2023/04/27 01:18:08;;;;;;;1999.90;999.90;;;;;;;10.22;100.00;98017.56;5132838;27;20016;-75
2023/04/27 01:20:35;;;;;;;1999.90;999.90;;;;;;;10.13;100.00;98020.13;5132561;27;20023;-74
2023/04/27 01:23:00;;;;;;;1999.90;999.90;;;;;;;10.14;100.00;98023.69;5132701;27;20117;-76
2023/04/27 01:25:25;;;;;;;1999.90;999.90;;;;;;;10.05;100.00;98022.66;5132477;27;20106;-76
2023/04/27 01:27:51;;;;;;;1999.90;999.90;;;;;;;10.07;100.00;98026.72;5131402;27;20055;-74
2023/04/27 01:30:16;;;;;;;1999.90;999.90;;;;;;;10.10;100.00;98025.31;5131392;27;20072;-75
2023/04/27 01:32:41;;;;;;;1999.90;999.90;;;;;;;10.06;100.00;98024.25;5132238;27;20123;-76
2023/04/27 01:35:07;;;;;;;1999.90;999.90;;;;;;;10.00;100.00;98022.69;5133342;27;20027;-74
2023/04/27 01:37:33;;;;;;;1999.90;999.90;;;;;;;10.03;100.00;98020.19;5133604;27;20079;-75
2023/04/27 01:39:59;;;;;;;1999.90;999.90;;;;;;;10.07;100.00;98036.84;5132972;27;20038;-74
2023/04/27 01:42:24;;;;;;;1999.90;999.90;;;;;;;10.07;100.00;98034.94;5131770;27;20467;-79
2023/04/27 01:44:50;;;;;;;1999.90;999.90;;;;;;;10.10;100.00;98034.34;5132757;27;20035;-76
2023/04/27 01:47:16;;;;;;;1999.90;999.90;;;;;;;10.10;100.00;98031.59;5133019;27;20020;-76
2023/04/27 01:49:41;;;;;;;1999.90;999.90;;;;;;;10.11;100.00;98043.34;5132826;27;20023;-76
2023/04/27 01:52:07;;;;;;;1999.90;999.90;;;;;;;10.04;100.00;98038.22;5130414;27;20030;-76
2023/04/27 01:54:32;;;;;;;1999.90;999.90;;;;;;;10.09;100.00;98031.88;5132816;27;20079;-75
2023/04/27 01:56:57;;;;;;;1999.90;999.90;;;;;;;10.05;100.00;98039.88;5132619;27;20022;-79
2023/04/27 01:59:23;;;;;;;1999.90;999.90;;;;;;;10.07;100.00;98042.31;5132462;27;20126;-76
2023/04/27 02:01:48;;;;;;;1999.90;999.90;;;;;;;9.99;100.00;98040.22;5132653;27;20029;-77
2023/04/27 02:04:13;;;;;;;1999.90;999.90;;;;;;;9.98;100.00;98042.13;5132354;27;20036;-78
2023/04/27 02:06:40;;;;;;;1999.90;999.90;;;;;;;10.04;100.00;98048.34;5132661;27;20079;-76
2023/04/27 02:09:05;;;;;;;1999.90;999.90;;;;;;;10.02;100.00;98039.63;5132678;27;20545;-75
2023/04/27 02:11:30;;;;;;;1999.90;999.90;;;;;;;9.96;100.00;98049.00;5132804;27;20051;-75
2023/04/27 02:13:56;;;;;;;1999.90;999.90;;;;;;;9.95;100.00;98042.72;5134184;27;20019;-75
2023/04/27 02:16:21;;;;;;;1999.90;999.90;;;;;;;9.92;100.00;98039.72;5136378;27;20019;-76
2023/04/27 02:18:47;;;;;;;1999.90;999.90;;;;;;;9.84;100.00;98043.06;5132211;27;20030;-76
2023/04/27 02:21:13;;;;;;;1999.90;999.90;;;;;;;9.75;100.00;98045.63;5131857;27;20031;-77
2023/04/27 02:23:38;;;;;;;1999.90;999.90;;;;;;;9.76;100.00;98044.53;5132750;27;20019;-77
2023/04/27 02:26:04;;;;;;;1999.90;999.90;;;;;;;9.76;100.00;98038.25;5131882;27;20031;-75
2023/04/27 02:28:31;;;;;;;1999.90;999.90;;;;;;;9.78;100.00;98055.16;5132057;27;20035;-76
2023/04/27 02:30:56;;;;;;;1999.90;999.90;;;;;;;9.73;100.00;98041.56;5132293;27;20042;-74
2023/04/27 02:33:21;;;;;;;1999.90;999.90;;;;;;;9.75;100.00;98051.09;5133013;27;20475;-75
2023/04/27 02:35:47;;;;;;;1999.90;999.90;;;;;;;9.65;100.00;98048.44;5132044;27;20031;-77
2023/04/27 02:38:12;;;;;;;1999.90;999.90;;;;;;;9.53;100.00;98050.75;5132013;27;20031;-75
2023/04/27 02:40:38;;;;;;;1999.90;999.90;;;;;;;9.45;100.00;98060.38;5124021;27;20023;-75
2023/04/27 02:43:03;;;;;;;1999.90;999.90;;;;;;;9.31;100.00;98053.09;5113407;27;20031;-74
2023/04/27 02:45:28;;;;;;;1999.90;999.90;;;;;;;9.26;100.00;98048.50;5118184;27;20102;-76
2023/04/27 02:47:54;;;;;;;1999.90;999.90;;;;;;;9.25;100.00;98057.78;5137379;27;20475;-80
2023/04/27 02:50:19;;;;;;;1999.90;999.90;;;;;;;9.15;100.00;98044.22;5137171;27;20516;-75
2023/04/27 02:52:45;;;;;;;1999.90;999.90;;;;;;;9.17;100.00;98055.69;5131663;27;20054;-76
2023/04/27 02:55:10;;;;;;;1999.90;999.90;;;;;;;9.10;100.00;98053.25;5131464;27;20035;-75
2023/04/27 02:57:36;;;;;;;1999.90;999.90;;;;;;;9.04;100.00;98061.75;5126353;28;20030;-75
2023/04/27 03:00:03;;;;;;;1999.90;999.90;;;;;;;9.04;100.00;98056.31;5110479;28;20499;-76
2023/04/27 03:02:29;;;;;;;1999.90;999.90;;;;;;;8.99;100.00;98054.41;5111052;28;20118;-77
2023/04/27 03:04:54;;;;;;;1999.90;999.90;;;;;;;9.04;100.00;98061.75;5111044;28;20510;-75
2023/04/27 03:07:21;;;;;;;1999.90;999.90;;;;;;;8.97;100.00;98073.00;5110552;28;20027;-77
2023/04/27 03:09:46;;;;;;;1999.90;999.90;;;;;;;8.91;100.00;98059.66;5111334;28;20048;-76
2023/04/27 03:12:11;;;;;;;1999.90;999.90;;;;;;;8.84;100.00;98057.22;5131173;28;20079;-77
2023/04/27 03:14:37;;;;;;;1999.90;999.90;;;;;;;8.80;100.00;98061.63;5131401;28;20023;-74
2023/04/27 03:17:02;;;;;;;1999.90;999.90;;;;;;;8.73;100.00;98065.75;5131010;28;20042;-74
2023/04/27 03:19:28;;;;;;;1999.90;999.90;;;;;;;8.72;100.00;98067.66;5131392;28;20469;-77
2023/04/27 03:21:53;;;;;;;1999.90;999.90;;;;;;;8.69;100.00;98067.41;5113561;28;20377;-75
2023/04/27 03:24:18;;;;;;;1999.90;999.90;;;;;;;8.69;100.00;98065.50;5132227;28;20020;-77
2023/04/27 03:26:44;;;;;;;1999.90;999.90;;;;;;;8.51;100.00;98061.50;5133503;28;20034;-75
2023/04/27 03:29:09;;;;;;;1999.90;999.90;;;;;;;8.49;100.00;98077.31;5132769;28;20026;-77
2023/04/27 03:31:34;;;;;;;1999.90;999.90;;;;;;;8.39;100.00;98061.00;5131042;28;20057;-77
2023/04/27 03:34:00;;;;;;;1999.90;999.90;;;;;;;8.38;100.00;98064.81;5127984;27;20511;-77
2023/04/27 03:36:26;;;;;;;1999.90;999.90;;;;;;;8.38;100.00;98074.91;5114909;28;20068;-76
2023/04/27 03:38:51;;;;;;;1999.90;999.90;;;;;;;8.35;100.00;98070.84;5115828;28;20024;-74
2023/04/27 03:41:16;;;;;;;1999.90;999.90;;;;;;;8.37;100.00;98076.00;5102034;28;20400;-76
2023/04/27 03:43:42;;;;;;;1999.90;999.90;;;;;;;8.36;100.00;98064.31;5114850;28;20057;-77
2023/04/27 03:46:07;;;;;;;1999.90;999.90;;;;;;;8.39;100.00;98071.09;5117486;28;20031;-76
2023/04/27 03:48:32;;;;;;;1999.90;999.90;;;;;;;8.18;100.00;98059.41;5116981;28;20035;-75
2023/04/27 03:50:59;;;;;;;1999.90;999.90;;;;;;;8.23;100.00;98064.84;5114467;28;20043;-75
2023/04/27 03:53:25;;;;;;;1999.90;999.90;;;;;;;8.17;100.00;98067.88;5125936;27;20687;-75
2023/04/27 03:55:51;;;;;;;1999.90;999.90;;;;;;;8.21;100.00;98066.19;5116098;27;20038;-76
2023/04/27 03:58:16;;;;;;;1999.90;999.90;;;;;;;8.09;100.00;98070.06;5135120;27;20076;-76
2023/04/27 04:00:42;;;;;;;1999.90;999.90;;;;;;;8.05;100.00;98068.16;5134705;27;20019;-76
2023/04/27 04:03:07;;;;;;;1999.90;999.90;;;;;;;8.05;100.00;98071.69;5134632;27;20500;-74
2023/04/27 04:05:33;;;;;;;1999.90;999.90;;;;;;;8.00;100.00;98077.16;5116164;27;20031;-77
2023/04/27 04:07:58;;;;;;;1999.90;999.90;;;;;;;8.06;100.00;98076.06;5134763;27;20051;-76
2023/04/27 04:10:24;;;;;;;1999.90;999.90;;;;;;;8.12;100.00;98082.31;5134405;27;20046;-77
2023/04/27 04:12:50;;;;;;;1999.90;999.90;;;;;;;8.11;100.00;98080.69;5134602;27;20033;-76
2023/04/27 04:15:16;;;;;;;1999.90;999.90;;;;;;;8.17;100.00;98076.88;5134317;27;20106;-75
2023/04/27 04:17:41;;;;;;;1999.90;999.90;;;;;;;8.26;100.00;98083.38;5116281;27;20110;-74
2023/04/27 04:20:08;;;;;;;1999.90;999.90;;;;;;;8.27;100.00;98092.38;5138578;27;20032;-74
2023/04/27 04:22:33;;;;;;;1999.90;999.90;;;;;;;8.36;100.00;98083.38;5134974;27;20396;-75
2023/04/27 04:24:59;;;;;;;1999.90;999.90;;;;;;;8.46;100.00;98088.75;5135451;27;20031;-75
2023/04/27 04:27:24;;;;;;;1999.90;999.90;;;;;;;8.47;100.00;98084.97;5134511;27;20058;-75
2023/04/27 04:29:50;;;;;;;1999.90;999.90;;;;;;;8.66;100.00;98087.06;5134422;27;20077;-77
2023/04/27 04:32:17;;;;;;;1999.90;999.90;;;;;;;8.87;100.00;98096.75;5134162;27;20035;-73
2023/04/27 04:34:43;;;;;;;1999.90;999.90;;;;;;;8.63;100.00;98090.34;5115434;27;20026;-74
2023/04/27 04:37:08;;;;;;;1999.90;999.90;;;;;;;8.70;100.00;98088.97;5134289;27;20027;-75
2023/04/27 04:39:33;;;;;;;1999.90;999.90;;;;;;;8.64;100.00;98106.44;5134516;27;20024;-79
2023/04/27 04:41:59;;;;;;;1999.90;999.90;;;;;;;8.55;100.00;98105.38;5134515;27;20015;-75
2023/04/27 04:44:24;;;;;;;1999.90;999.90;;;;;;;8.50;100.00;98117.13;5134365;27;20019;-75
2023/04/27 04:46:50;;;;;;;1999.90;999.90;;;;;;;8.59;100.00;98120.06;5134921;27;20114;-77
2023/04/27 04:49:16;;;;;;;1999.90;999.90;;;;;;;8.88;100.00;98126.50;5135400;27;20472;-73
2023/04/27 04:51:42;;;;;;;1999.90;999.90;;;;;;;9.10;100.00;98137.84;5134687;27;20061;-75
2023/04/27 04:54:08;;;;;;;1999.90;999.90;;;;;;;9.16;100.00;98133.19;5135390;27;20035;-74
2023/04/27 04:56:33;;;;;;;1999.90;999.90;;;;;;;9.29;100.00;98135.28;5139196;27;20048;-79
2023/04/27 04:58:58;;;;;;;1999.90;999.90;;;;;;;9.44;100.00;98143.38;5143422;27;20012;-77
2023/04/27 05:01:24;;;;;;;1999.90;999.90;;;;;;;9.83;100.00;98153.47;5138142;27;20034;-76
2023/04/27 05:03:49;;;;;;;1999.90;999.90;;;;;;;10.18;100.00;98142.25;5135599;27;20084;-76
2023/04/27 05:06:14;;;;;;;1999.90;999.90;;;;;;;10.35;100.00;98142.63;5138725;27;20034;-82
2023/04/27 05:08:40;;;;;;;1999.90;999.90;;;;;;;10.30;100.00;98152.81;5139106;27;20023;-75
2023/04/27 05:11:05;;;;;;;1999.90;999.90;;;;;;;10.16;100.00;98156.22;5136898;27;20510;-74
2023/04/27 05:13:30;;;;;;;1999.90;999.90;;;;;;;10.04;100.00;98157.66;5136655;27;20391;-75
2023/04/27 05:15:56;;;;;;;1999.90;999.90;;;;;;;10.06;100.00;98158.19;5136329;27;20112;-84
2023/04/27 05:18:22;;;;;;;1999.90;999.90;;;;;;;10.22;100.00;98162.44;5135654;27;20110;-76
2023/04/27 05:20:47;;;;;;;1999.90;999.90;;;;;;;10.46;100.00;98166.00;5133669;27;20038;-74
2023/04/27 05:23:13;;;;;;;1999.90;999.90;;;;;;;10.37;100.00;98162.28;5132500;27;20110;-74
2023/04/27 05:25:41;;;;;;;1999.90;999.90;;;;;;;10.33;100.00;98158.53;5132873;27;20024;-76
2023/04/27 05:28:08;;;;;;;1999.90;999.90;;;;;;;10.46;100.00;98165.22;5133422;27;20115;-74
2023/04/27 05:30:34;;;;;;;1999.90;999.90;;;;;;;10.66;97.74;98154.88;5132682;27;20027;-77
2023/04/27 05:32:59;;;;;;;1999.90;999.90;;;;;;;10.73;97.51;98166.28;5133674;27;20034;-74
2023/04/27 05:35:25;;;;;;;1999.90;999.90;;;;;;;10.71;96.93;98163.00;5116656;27;20027;-74
2023/04/27 05:37:50;;;;;;;1999.90;999.90;;;;;;;10.88;93.77;98162.56;5111602;28;20076;-75
2023/04/27 05:40:15;;;;;;;1999.90;999.90;;;;;;;11.12;89.98;98154.31;5111295;28;20536;-73
2023/04/27 05:42:41;;;;;;;1999.90;999.90;;;;;;;11.21;87.50;98150.63;5111678;28;20024;-74
2023/04/27 05:45:06;;;;;;;1999.90;999.90;;;;;;;11.46;85.92;98152.22;5111654;28;20100;-74
2023/04/27 05:47:32;;;;;;;1999.90;999.90;;;;;;;11.21;87.74;98153.34;5111974;28;20111;-75
2023/04/27 05:49:57;;;;;;;1999.90;999.90;;;;;;;11.31;85.05;98154.34;5112039;28;20024;-74
2023/04/27 05:52:28;;;;;;;1999.90;999.90;;;;;;;11.38;83.26;98163.00;5112443;28;20447;-75
2023/04/27 05:54:53;;;;;;;1999.90;999.90;;;;;;;11.34;83.14;98170.19;5122630;27;20673;-74
2023/04/27 05:57:19;;;;;;;1999.90;999.90;;;;;;;11.13;84.08;98158.69;5132937;27;20030;-76
2023/04/27 05:59:44;;;;;;;1999.90;999.90;;;;;;;11.40;83.41;98164.34;5133311;27;20092;-75
2023/04/27 06:02:10;;;;;;;1999.90;999.90;;;;;;;11.45;82.54;98156.06;5143285;27;20030;-75
2023/04/27 06:04:36;;;;;;;1999.90;999.90;;;;;;;11.62;81.59;98139.88;5153792;27;20740;-77
2023/04/27 06:07:04;;;;;;;1999.90;999.90;;;;;;;11.76;79.78;98140.00;5134750;27;20032;-74
2023/04/27 06:09:30;;;;;;;1999.90;999.90;;;;;;;11.76;78.05;98146.28;5126625;27;20039;-75
2023/04/27 06:11:57;;;;;;;1999.90;999.90;;;;;;;11.36;78.91;98141.38;5130526;27;20424;-76
2023/04/27 06:14:23;;;;;;;1999.90;999.90;;;;;;;11.47;78.39;98142.03;5111386;28;20122;-75
2023/04/27 06:16:48;;;;;;;1999.90;999.90;;;;;;;11.85;77.63;98142.84;5111815;28;20165;-74
2023/04/27 06:19:14;;;;;;;1999.90;999.90;;;;;;;11.85;74.41;98149.16;5110902;28;20491;-74
2023/04/27 06:21:40;;;;;;;1999.90;999.90;;;;;;;11.92;74.15;98135.91;5093077;28;20796;-73
2023/04/27 06:24:05;;;;;;;1999.90;999.90;;;;;;;11.88;73.15;98147.75;5113378;27;20091;-74
2023/04/27 06:26:31;;;;;;;1999.90;999.90;;;;;;;12.00;71.69;98139.84;5132384;27;20153;-74
2023/04/27 06:28:56;;;;;;;1999.90;999.90;;;;;;;12.79;66.75;98147.72;5114248;27;20326;-73
2023/04/27 06:31:21;;;;;;;1999.90;999.90;;;;;;;15.77;54.73;98159.41;5135473;27;20107;-86
2023/04/27 06:33:47;;;;;;;1999.90;999.90;;;;;;;16.45;50.04;98168.75;5133021;27;20041;-76
2023/04/27 06:36:12;;;;;;;1999.90;999.90;;;;;;;15.63;50.82;98185.50;5131644;27;20047;-75
2023/04/27 06:38:37;;;;;;;1999.90;999.90;;;;;;;14.80;54.10;98190.06;5131781;27;20469;-75
2023/04/27 06:41:03;;;;;;;1999.90;999.90;;;;;;;14.73;54.61;98218.06;5131423;27;20015;-75
2023/04/27 06:43:29;;;;;;;1999.90;999.90;;;;;;;15.07;52.68;98222.13;5130715;27;20030;-76
2023/04/27 06:45:55;;;;;;;1999.90;999.90;;;;;;;14.51;54.62;98220.84;5131711;27;20023;-73
2023/04/27 06:48:20;;;;;;;1999.90;999.90;;;;;;;14.02;54.95;98223.69;5131105;27;20026;-75
2023/04/27 06:50:46;;;;;;;1999.90;999.90;;;;;;;13.90;56.34;98227.00;5130863;27;20019;-77
2023/04/27 06:53:12;;;;;;;1999.90;999.90;;;;;;;13.77;54.89;98209.41;5131688;27;20079;-75
2023/04/27 06:55:38;;;;;;;1999.90;999.90;;;;;;;13.64;54.19;98217.69;5132750;27;20504;-76
2023/04/27 06:58:03;;;;;;;1999.90;999.90;;;;;;;13.19;52.54;98211.22;5132468;28;20484;-75
2023/04/27 07:00:31;;;;;;;1999.90;999.90;;;;;;;13.14;54.17;98181.94;5133098;28;20082;-77
2023/04/27 07:02:56;;;;;;;1999.90;999.90;;;;;;;13.79;51.45;98207.16;5134351;28;20027;-78
2023/04/27 07:05:22;;;;;;;1999.90;999.90;;;;;;;13.79;50.65;98182.41;5138090;28;20492;-76
2023/04/27 07:07:47;;;;;;;1999.90;999.90;;;;;;;13.76;51.42;98190.47;5136345;27;20031;-76
2023/04/27 07:10:13;;;;;;;1999.90;999.90;;;;;;;13.69;49.00;98179.88;5135516;27;20039;-76
2023/04/27 07:12:38;;;;;;;1999.90;999.90;;;;;;;13.70;49.57;98183.44;5137334;27;20035;-77
2023/04/27 07:15:05;;;;;;;1999.90;999.90;;;;;;;14.17;47.85;98188.38;5135050;27;20118;-75
2023/04/27 07:17:31;;;;;;;1999.90;999.90;;;;;;;14.30;47.32;98187.50;5135038;27;20076;-76
2023/04/27 07:19:57;;;;;;;1999.90;999.90;;;;;;;14.18;47.60;98178.19;5134362;27;20068;-75
2023/04/27 07:22:22;;;;;;;1999.90;999.90;;;;;;;14.34;48.63;98193.22;5135435;27;20019;-74
2023/04/27 07:24:47;;;;;;;1999.90;999.90;;;;;;;13.95;49.49;98186.44;5135702;27;20023;-76
2023/04/27 07:27:13;;;;;;;1999.90;999.90;;;;;;;14.29;49.57;98194.13;5135757;27;20102;-75
2023/04/27 07:29:39;;;;;;;1999.90;999.90;;;;;;;14.81;48.14;98178.75;5135524;27;20414;-76
2023/04/27 07:32:06;;;;;;;1999.90;999.90;;;;;;;14.84;47.02;98175.38;5116714;27;20081;-74
2023/04/27 07:34:31;;;;;;;1999.90;999.90;;;;;;;14.95;48.05;98175.88;5134928;27;20035;-75
2023/04/27 07:36:56;;;;;;;1999.90;999.90;;;;;;;14.95;47.00;98187.72;5136990;27;20033;-76
2023/04/27 07:39:22;;;;;;;1999.90;999.90;;;;;;;15.21;47.10;98189.75;5116497;27;20122;-76
2023/04/27 07:41:48;;;;;;;1999.90;999.90;;;;;;;16.10;45.17;98206.63;5134778;27;20033;-76
2023/04/27 07:44:16;;;;;;;1999.90;999.90;;;;;;;15.81;44.83;98201.75;5134804;27;20113;-76
2023/04/27 07:46:41;;;;;;;1999.90;999.90;;;;;;;15.85;44.68;98210.22;5134754;27;20057;-75
2023/04/27 07:49:06;;;;;;;1999.90;999.90;;;;;;;15.51;44.84;98197.97;5134755;27;20059;-74
2023/04/27 07:51:33;;;;;;;1999.90;999.90;;;;;;;15.69;44.87;98190.56;5134808;27;20102;-76
2023/04/27 07:53:58;;;;;;;1999.90;999.90;;;;;;;16.55;43.55;98201.56;5135721;27;20035;-76
2023/04/27 07:56:24;;;;;;;1999.90;999.90;;;;;;;16.84;42.81;98221.00;5139574;27;20035;-75
2023/04/27 07:58:49;;;;;;;1999.90;999.90;;;;;;;16.85;42.54;98217.09;5134874;27;20027;-75
2023/04/27 08:01:15;;;;;;;1999.90;999.90;;;;;;;16.74;42.11;98215.84;5127560;27;20032;-75
2023/04/27 08:03:40;;;;;;;1999.90;999.90;;;;;;;17.49;41.54;98225.28;5129910;27;20049;-76
2023/04/27 08:06:09;;;;;;;1999.90;999.90;;;;;;;16.79;42.11;98220.38;5132498;27;20019;-74
2023/04/27 08:08:34;;;;;;;1999.90;999.90;;;;;;;16.02;44.12;98216.53;5131539;27;20027;-74
2023/04/27 08:10:59;;;;;;;1999.90;999.90;;;;;;;15.26;45.98;98214.41;5135144;27;20411;-84
2023/04/27 08:13:25;;;;;;;1999.90;999.90;;;;;;;15.13;46.25;98202.38;5135054;27;20030;-84
2023/04/27 08:15:53;;;;;;;1999.90;999.90;;;;;;;14.73;47.90;98200.72;5133522;27;20027;-75
2023/04/27 08:18:18;;;;;;;1999.90;999.90;;;;;;;14.63;48.50;98207.31;5133716;27;20030;-75
2023/04/27 08:20:43;;;;;;;1999.90;999.90;;;;;;;14.83;47.94;98198.53;5133465;27;20379;-78
2023/04/27 08:23:09;;;;;;;1999.90;999.90;;;;;;;14.99;46.93;98199.72;5135002;27;20027;-78
2023/04/27 08:25:35;;;;;;;1999.90;999.90;;;;;;;15.30;46.51;98198.84;5116998;27;20025;-80
2023/04/27 08:28:01;;;;;;;1999.90;999.90;;;;;;;15.46;46.39;98191.78;5134241;27;20023;-76
2023/04/27 08:30:26;;;;;;;1999.90;999.90;;;;;;;15.36;45.60;98175.53;5132891;27;21132;-79
2023/04/27 08:32:53;;;;;;;1999.90;999.90;;;;;;;14.34;48.03;98166.53;5133021;27;20127;-77
2023/04/27 08:35:18;;;;;;;1999.90;999.90;;;;;;;14.51;48.01;98163.03;5133357;27;20023;-77
2023/04/27 08:37:44;;;;;;;1999.90;999.90;;;;;;;15.46;47.48;98169.72;5135442;27;20069;-80
2023/04/27 08:40:10;;;;;;;1999.90;999.90;;;;;;;16.69;42.91;98193.91;5135358;27;20073;-87
2023/04/27 08:42:35;;;;;;;1999.90;999.90;;;;;;;16.64;42.83;98183.03;5137650;27;20023;-81
2023/04/27 08:45:01;;;;;;;1999.90;999.90;;;;;;;17.88;40.86;98175.13;5135545;27;20487;-77
2023/04/27 08:47:26;;;;;;;1999.90;999.90;;;;;;;17.92;42.80;98200.94;5135895;27;20047;-75
2023/04/27 08:49:52;;;;;;;1999.90;999.90;;;;;;;19.08;38.22;98193.31;5130822;27;20027;-75
2023/04/27 08:52:17;;;;;;;1999.90;999.90;;;;;;;19.72;36.72;98192.66;5133371;27;20035;-79
2023/04/27 08:54:43;;;;;;;1999.90;999.90;;;;;;;19.92;39.16;98182.56;5137232;27;20030;-76
2023/04/27 08:57:12;;;;;;;1999.90;999.90;;;;;;;20.95;37.03;98192.69;5104609;27;20471;-74
2023/04/27 08:59:39;;;;;;;1999.90;999.90;;;;;;;20.29;37.27;98187.69;5138617;27;20023;-82
2023/04/27 09:02:04;;;;;;;1999.90;999.90;;;;;;;19.81;37.29;98193.34;5136064;27;20020;-79
2023/04/27 09:04:39;;;;;;;1999.90;999.90;;;;;;;20.17;36.17;98196.00;5132494;27;20472;-75
2023/04/27 09:07:15;;;;;;;1999.90;999.90;;;;;;;20.35;35.75;98195.75;5134591;27;20015;-87
2023/04/27 09:09:41;;;;;;;1999.90;999.90;;;;;;;20.02;36.03;98204.25;5131199;27;20063;-85
2023/04/27 09:12:18;;;;;;;1999.90;999.90;;;;;;;18.93;38.84;98196.75;5138162;27;20413;-78
2023/04/27 09:14:55;;;;;;;1999.90;999.90;;;;;;;18.60;38.62;98196.81;5136317;27;20476;-78
2023/04/27 09:17:27;;;;;;;1999.90;999.90;;;;;;;19.09;38.41;98191.34;5131756;27;20027;-82
2023/04/27 09:20:12;;;;;;;1999.90;999.90;;;;;;;19.26;37.71;98182.81;5151619;27;20458;-84
2023/04/27 09:22:48;;;;;;;1999.90;999.90;;;;;;;19.37;37.88;98174.84;5120612;27;20031;-76
2023/04/27 09:25:31;;;;;;;1999.90;999.90;;;;;;;19.73;38.51;98183.97;5134966;27;20452;-76
2023/04/27 09:27:58;;;;;;;1999.90;999.90;;;;;;;20.36;37.03;98187.06;5133852;27;20027;-75
2023/04/27 09:30:24;;;;;;;1999.90;999.90;;;;;;;20.64;36.62;98187.84;5131478;27;20399;-75
2023/04/27 09:32:54;;;;;;;1999.90;999.90;;;;;;;21.61;35.80;98184.44;5130291;27;20062;-75
2023/04/27 09:35:31;;;;;;;1999.90;999.90;;;;;;;24.27;32.11;98184.66;5132018;27;20076;-73
2023/04/27 09:37:58;;;;;;;1999.90;999.90;;;;;;;24.58;31.58;98183.44;5132402;27;20035;-76
2023/04/27 09:40:26;;;;;;;1999.90;999.90;;;;;;;22.91;34.74;98175.28;5132973;27;20095;-75
2023/04/27 09:42:53;;;;;;;1999.90;999.90;;;;;;;24.28;32.63;98170.25;5129860;27;20033;-75
2023/04/27 09:45:19;;;;;;;1999.90;999.90;;;;;;;23.80;31.19;98171.19;5113455;27;20031;-76
2023/04/27 09:47:45;;;;;;;1999.90;999.90;;;;;;;21.77;33.25;98173.25;5132291;27;20464;-75
2023/04/27 09:50:13;;;;;;;1999.90;999.90;;;;;;;18.24;41.49;98157.84;5133021;27;20135;-76
2023/04/27 09:52:39;;;;;;;1999.90;999.90;;;;;;;17.93;41.42;98158.28;5133090;27;20027;-75
2023/04/27 09:55:14;;;;;;;1999.90;999.90;;;;;;;17.95;44.26;98153.22;5133548;27;20027;-75
2023/04/27 09:57:50;;;;;;;1999.90;999.90;;;;;;;17.48;43.60;98154.50;5115391;27;20539;-75
2023/04/27 10:00:22;;;;;;;1999.90;999.90;;;;;;;17.89;44.08;98149.03;5132420;27;20034;-76
2023/04/27 10:02:50;;;;;;;1999.90;999.90;;;;;;;17.58;41.94;98151.38;5132891;27;20031;-75
2023/04/27 10:05:24;;;;;;;1999.90;999.90;;;;;;;17.77;42.22;98148.97;5129618;27;20459;-75
2023/04/27 10:07:52;;;;;;;1999.90;999.90;;;;;;;17.44;42.26;98145.28;5132735;27;20588;-73
2023/04/27 10:10:18;;;;;;;1999.90;999.90;;;;;;;17.47;42.46;98133.53;5136111;27;20035;-74
2023/04/27 10:12:55;;;;;;;1999.90;999.90;;;;;;;17.49;46.31;98140.34;5135988;27;20110;-73
2023/04/27 10:15:26;;;;;;;1999.90;999.90;;;;;;;17.88;43.97;98132.78;5134123;27;20043;-73
2023/04/27 10:17:53;;;;;;;1999.90;999.90;;;;;;;18.18;41.54;98142.59;5135995;27;20029;-74
2023/04/27 10:20:30;;;;;;;1999.90;999.90;;;;;;;17.96;42.05;98140.19;5131697;27;20030;-73
2023/04/27 10:22:57;;;;;;;1999.90;999.90;;;;;;;17.64;44.23;98134.25;5131636;27;20043;-73
2023/04/27 10:25:27;;;;;;;1999.90;999.90;;;;;;;17.95;44.19;98125.53;5133225;27;20027;-74
2023/04/27 10:28:00;;;;;;;1999.90;999.90;;;;;;;17.58;42.65;98134.78;5134333;27;20024;-74
2023/04/27 10:30:36;;;;;;;1999.90;999.90;;;;;;;16.39;47.14;98136.94;5136351;27;20023;-74
2023/04/27 10:33:09;;;;;;;1999.90;999.90;;;;;;;16.72;45.43;98134.44;5136422;27;20019;-72
2023/04/27 10:35:44;;;;;;;1999.90;999.90;;;;;;;17.00;45.58;98124.56;5132875;27;20030;-73
2023/04/27 10:38:22;;;;;;;1999.90;999.90;;;;;;;17.80;44.28;98137.22;5133598;27;20027;-76
2023/04/27 10:41:06;;;;;;;1999.90;999.90;;;;;;;18.65;41.32;98132.03;5131981;27;20075;-75
2023/04/27 10:43:33;;;;;;;1999.90;999.90;;;;;;;18.94;41.39;98126.31;5103054;27;20023;-74
2023/04/27 10:46:13;;;;;;;1999.90;999.90;;;;;;;19.27;39.94;98126.16;5133377;27;20072;-74
2023/04/27 10:48:40;;;;;;;1999.90;999.90;;;;;;;19.13;40.06;98123.78;5130937;27;20780;-74